Terminal Aerodrome Forecast
Issued by NWS Goodland, KS

Home | Current Version | Previous Version | Text Only | Print | Product List | Glossary On
Versions: 1 2 3 4 5 6 7 8 9 10 11 12 13 14 15 16 17 18
000
FTUS43 KGLD 231300 AAA
TAFGLD
TAF AMD
KGLD 231320Z 2313/2412 12012KT P6SM OVC004
      TEMPO 2314/2316 4SM BR BKN012
     FM231600 16010G18KT P6SM FEW010 SCT250
     FM240100 18010KT P6SM VCTS SCT060CB SCT250
     FM240600 18010KT P6SM FEW250=

USA.gov is the U.S. government's official web portal to all federal, state and local government web resources and services.